<?xml version="1.0" encoding="UTF-8" standalone="no" ?>
<gpx xmlns="http://www.topografix.com/GPX/1/1" xmlns:xsi="http://www.w3.org/2001/XMLSchema-instance" xsi:schemaLocation="http://www.topografix.com/GPX/1/1 http://www.topografix.com/GPX/1/1/gpx.xsd" version="1.1" creator="VisuGPX - https://www.visugpx.com">
  <metadata>
    <name>Course à pied dans l'après-midi</name>
  </metadata>
  <trk>
    <name><![CDATA[Course à pied dans l'après-midi_1]]></name>
    <trkseg>
      <trkpt lat="46.03439" lon="6.77097">
        <ele>845.5</ele>
        <time>2023-08-11T15:32:27Z</time>
      </trkpt>
      <trkpt lat="46.03422" lon="6.77112">
        <ele>847.5</ele>
        <time>2023-08-11T15:32:35Z</time>
      </trkpt>
      <trkpt lat="46.03403" lon="6.77114">
        <ele>849.8</ele>
        <time>2023-08-11T15:32:41Z</time>
      </trkpt>
      <trkpt lat="46.03385" lon="6.77103">
        <ele>852.5</ele>
        <time>2023-08-11T15:32:48Z</time>
      </trkpt>
      <trkpt lat="46.03367" lon="6.77099">
        <ele>854.5</ele>
        <time>2023-08-11T15:32:56Z</time>
      </trkpt>
      <trkpt lat="46.03352" lon="6.77114">
        <ele>855</ele>
        <time>2023-08-11T15:33:05Z</time>
      </trkpt>
      <trkpt lat="46.03334" lon="6.77127">
        <ele>856.2</ele>
        <time>2023-08-11T15:33:16Z</time>
      </trkpt>
      <trkpt lat="46.03329" lon="6.77131">
        <ele>856.5</ele>
        <time>2023-08-11T15:33:20Z</time>
      </trkpt>
      <trkpt lat="46.03327" lon="6.77133">
        <ele>856.6</ele>
        <time>2023-08-11T15:33:22Z</time>
      </trkpt>
      <trkpt lat="46.03322" lon="6.77132">
        <ele>858</ele>
        <time>2023-08-11T15:33:25Z</time>
      </trkpt>
      <trkpt lat="46.03325" lon="6.77104">
        <ele>860</ele>
        <time>2023-08-11T15:33:34Z</time>
      </trkpt>
      <trkpt lat="46.03326" lon="6.77076">
        <ele>863.6</ele>
        <time>2023-08-11T15:33:43Z</time>
      </trkpt>
      <trkpt lat="46.03325" lon="6.77074">
        <ele>864</ele>
        <time>2023-08-11T15:33:44Z</time>
      </trkpt>
      <trkpt lat="46.03323" lon="6.77073">
        <ele>864.5</ele>
        <time>2023-08-11T15:33:46Z</time>
      </trkpt>
      <trkpt lat="46.0331" lon="6.7709">
        <ele>868.2</ele>
        <time>2023-08-11T15:34:01Z</time>
      </trkpt>
      <trkpt lat="46.03297" lon="6.77105">
        <ele>872.2</ele>
        <time>2023-08-11T15:34:16Z</time>
      </trkpt>
      <trkpt lat="46.03296" lon="6.77107">
        <ele>872.6</ele>
        <time>2023-08-11T15:34:18Z</time>
      </trkpt>
      <trkpt lat="46.03281" lon="6.77123">
        <ele>876.7</ele>
        <time>2023-08-11T15:34:29Z</time>
      </trkpt>
      <trkpt lat="46.03264" lon="6.77137">
        <ele>880.8</ele>
        <time>2023-08-11T15:34:38Z</time>
      </trkpt>
      <trkpt lat="46.03252" lon="6.77141">
        <ele>883.4</ele>
        <time>2023-08-11T15:34:45Z</time>
      </trkpt>
      <trkpt lat="46.03233" lon="6.77137">
        <ele>887</ele>
        <time>2023-08-11T15:34:55Z</time>
      </trkpt>
      <trkpt lat="46.03216" lon="6.77125">
        <ele>889.9</ele>
        <time>2023-08-11T15:35:05Z</time>
      </trkpt>
      <trkpt lat="46.03199" lon="6.77114">
        <ele>892.7</ele>
        <time>2023-08-11T15:35:15Z</time>
      </trkpt>
      <trkpt lat="46.03182" lon="6.77098">
        <ele>895.6</ele>
        <time>2023-08-11T15:35:25Z</time>
      </trkpt>
      <trkpt lat="46.03165" lon="6.77088">
        <ele>898.5</ele>
        <time>2023-08-11T15:35:34Z</time>
      </trkpt>
      <trkpt lat="46.03147" lon="6.77085">
        <ele>901.4</ele>
        <time>2023-08-11T15:35:44Z</time>
      </trkpt>
      <trkpt lat="46.03128" lon="6.77084">
        <ele>904.7</ele>
        <time>2023-08-11T15:35:54Z</time>
      </trkpt>
      <trkpt lat="46.03109" lon="6.77087">
        <ele>908.7</ele>
        <time>2023-08-11T15:36:04Z</time>
      </trkpt>
      <trkpt lat="46.03091" lon="6.77089">
        <ele>911.9</ele>
        <time>2023-08-11T15:36:19Z</time>
      </trkpt>
      <trkpt lat="46.03075" lon="6.77089">
        <ele>915.3</ele>
        <time>2023-08-11T15:36:32Z</time>
      </trkpt>
      <trkpt lat="46.03073" lon="6.77089">
        <ele>915.8</ele>
        <time>2023-08-11T15:36:34Z</time>
      </trkpt>
      <trkpt lat="46.03054" lon="6.77087">
        <ele>919.9</ele>
        <time>2023-08-11T15:36:46Z</time>
      </trkpt>
      <trkpt lat="46.03035" lon="6.77092">
        <ele>924.1</ele>
        <time>2023-08-11T15:36:56Z</time>
      </trkpt>
      <trkpt lat="46.03015" lon="6.7709">
        <ele>928.5</ele>
        <time>2023-08-11T15:37:05Z</time>
      </trkpt>
      <trkpt lat="46.03003" lon="6.77068">
        <ele>933.7</ele>
        <time>2023-08-11T15:37:15Z</time>
      </trkpt>
      <trkpt lat="46.02997" lon="6.77065">
        <ele>934</ele>
        <time>2023-08-11T15:37:19Z</time>
      </trkpt>
      <trkpt lat="46.02979" lon="6.77072">
        <ele>936.1</ele>
        <time>2023-08-11T15:37:33Z</time>
      </trkpt>
      <trkpt lat="46.02978" lon="6.77073">
        <ele>936.2</ele>
        <time>2023-08-11T15:37:34Z</time>
      </trkpt>
      <trkpt lat="46.0296" lon="6.77077">
        <ele>938.6</ele>
        <time>2023-08-11T15:37:48Z</time>
      </trkpt>
      <trkpt lat="46.02943" lon="6.77086">
        <ele>941.1</ele>
        <time>2023-08-11T15:37:59Z</time>
      </trkpt>
      <trkpt lat="46.02924" lon="6.77093">
        <ele>943.8</ele>
        <time>2023-08-11T15:38:08Z</time>
      </trkpt>
      <trkpt lat="46.02905" lon="6.77096">
        <ele>946.5</ele>
        <time>2023-08-11T15:38:17Z</time>
      </trkpt>
      <trkpt lat="46.02886" lon="6.77105">
        <ele>948.5</ele>
        <time>2023-08-11T15:38:26Z</time>
      </trkpt>
      <trkpt lat="46.02868" lon="6.77107">
        <ele>949.5</ele>
        <time>2023-08-11T15:38:36Z</time>
      </trkpt>
      <trkpt lat="46.0286" lon="6.77108">
        <ele>952.1</ele>
        <time>2023-08-11T15:38:42Z</time>
      </trkpt>
      <trkpt lat="46.02844" lon="6.7712">
        <ele>956.3</ele>
        <time>2023-08-11T15:38:55Z</time>
      </trkpt>
      <trkpt lat="46.02842" lon="6.77146">
        <ele>960.6</ele>
        <time>2023-08-11T15:39:06Z</time>
      </trkpt>
      <trkpt lat="46.02843" lon="6.77147">
        <ele>961</ele>
        <time>2023-08-11T15:39:07Z</time>
      </trkpt>
      <trkpt lat="46.02846" lon="6.77171">
        <ele>966.1</ele>
        <time>2023-08-11T15:39:19Z</time>
      </trkpt>
      <trkpt lat="46.02842" lon="6.77177">
        <ele>966.7</ele>
        <time>2023-08-11T15:39:31Z</time>
      </trkpt>
      <trkpt lat="46.02823" lon="6.77172">
        <ele>982.2</ele>
        <time>2023-08-11T15:39:46Z</time>
      </trkpt>
      <trkpt lat="46.02817" lon="6.77165">
        <ele>990.1</ele>
        <time>2023-08-11T15:39:51Z</time>
      </trkpt>
      <trkpt lat="46.02814" lon="6.77163">
        <ele>992.8</ele>
        <time>2023-08-11T15:39:55Z</time>
      </trkpt>
      <trkpt lat="46.02811" lon="6.7716">
        <ele>996.9</ele>
        <time>2023-08-11T15:39:58Z</time>
      </trkpt>
      <trkpt lat="46.02807" lon="6.77155">
        <ele>1004.4</ele>
        <time>2023-08-11T15:40:03Z</time>
      </trkpt>
      <trkpt lat="46.02805" lon="6.77154">
        <ele>1004.2</ele>
        <time>2023-08-11T15:40:06Z</time>
      </trkpt>
      <trkpt lat="46.02795" lon="6.77147">
        <ele>1017.9</ele>
        <time>2023-08-11T15:40:28Z</time>
      </trkpt>
      <trkpt lat="46.02793" lon="6.77146">
        <ele>1017.7</ele>
        <time>2023-08-11T15:40:31Z</time>
      </trkpt>
      <trkpt lat="46.0279" lon="6.77144">
        <ele>1021.3</ele>
        <time>2023-08-11T15:40:35Z</time>
      </trkpt>
      <trkpt lat="46.02789" lon="6.77141">
        <ele>1023.7</ele>
        <time>2023-08-11T15:40:37Z</time>
      </trkpt>
      <trkpt lat="46.02788" lon="6.77138">
        <ele>1024.6</ele>
        <time>2023-08-11T15:40:40Z</time>
      </trkpt>
      <trkpt lat="46.02778" lon="6.77131">
        <ele>1036.1</ele>
        <time>2023-08-11T15:41:04Z</time>
      </trkpt>
      <trkpt lat="46.02767" lon="6.77137">
        <ele>1041.1</ele>
        <time>2023-08-11T15:41:19Z</time>
      </trkpt>
      <trkpt lat="46.02763" lon="6.77136">
        <ele>1042.9</ele>
        <time>2023-08-11T15:41:23Z</time>
      </trkpt>
      <trkpt lat="46.02759" lon="6.77141">
        <ele>1045.3</ele>
        <time>2023-08-11T15:41:31Z</time>
      </trkpt>
      <trkpt lat="46.02756" lon="6.77139">
        <ele>1047.8</ele>
        <time>2023-08-11T15:41:35Z</time>
      </trkpt>
      <trkpt lat="46.02754" lon="6.77123">
        <ele>1050.9</ele>
        <time>2023-08-11T15:41:46Z</time>
      </trkpt>
      <trkpt lat="46.02753" lon="6.77117">
        <ele>1051.7</ele>
        <time>2023-08-11T15:41:51Z</time>
      </trkpt>
      <trkpt lat="46.02752" lon="6.77118">
        <ele>1051.6</ele>
        <time>2023-08-11T15:41:53Z</time>
      </trkpt>
      <trkpt lat="46.02751" lon="6.77119">
        <ele>1052.6</ele>
        <time>2023-08-11T15:41:55Z</time>
      </trkpt>
      <trkpt lat="46.0275" lon="6.77122">
        <ele>1052.5</ele>
        <time>2023-08-11T15:41:58Z</time>
      </trkpt>
      <trkpt lat="46.02745" lon="6.77129">
        <ele>1055.5</ele>
        <time>2023-08-11T15:42:06Z</time>
      </trkpt>
      <trkpt lat="46.02742" lon="6.77133">
        <ele>1056.1</ele>
        <time>2023-08-11T15:42:11Z</time>
      </trkpt>
      <trkpt lat="46.02737" lon="6.77137">
        <ele>1056.4</ele>
        <time>2023-08-11T15:42:18Z</time>
      </trkpt>
      <trkpt lat="46.02736" lon="6.77112">
        <ele>1062.5</ele>
        <time>2023-08-11T15:42:36Z</time>
      </trkpt>
      <trkpt lat="46.02734" lon="6.77107">
        <ele>1063.6</ele>
        <time>2023-08-11T15:42:43Z</time>
      </trkpt>
      <trkpt lat="46.02732" lon="6.77108">
        <ele>1064.2</ele>
        <time>2023-08-11T15:42:47Z</time>
      </trkpt>
      <trkpt lat="46.02732" lon="6.7711">
        <ele>1064.6</ele>
        <time>2023-08-11T15:42:50Z</time>
      </trkpt>
      <trkpt lat="46.02732" lon="6.77111">
        <ele>1064.9</ele>
        <time>2023-08-11T15:42:52Z</time>
      </trkpt>
      <trkpt lat="46.02717" lon="6.77122">
        <ele>1069</ele>
        <time>2023-08-11T15:43:21Z</time>
      </trkpt>
      <trkpt lat="46.02706" lon="6.77109">
        <ele>1072.7</ele>
        <time>2023-08-11T15:43:42Z</time>
      </trkpt>
      <trkpt lat="46.02701" lon="6.771">
        <ele>1074.6</ele>
        <time>2023-08-11T15:43:51Z</time>
      </trkpt>
      <trkpt lat="46.027" lon="6.77097">
        <ele>1075.1</ele>
        <time>2023-08-11T15:43:54Z</time>
      </trkpt>
      <trkpt lat="46.02692" lon="6.7708">
        <ele>1078.1</ele>
        <time>2023-08-11T15:44:12Z</time>
      </trkpt>
      <trkpt lat="46.02674" lon="6.77075">
        <ele>1080.8</ele>
        <time>2023-08-11T15:44:28Z</time>
      </trkpt>
      <trkpt lat="46.02671" lon="6.77071">
        <ele>1081.1</ele>
        <time>2023-08-11T15:44:32Z</time>
      </trkpt>
      <trkpt lat="46.0267" lon="6.77043">
        <ele>1082</ele>
        <time>2023-08-11T15:44:40Z</time>
      </trkpt>
      <trkpt lat="46.0266" lon="6.7702">
        <ele>1086.1</ele>
        <time>2023-08-11T15:44:51Z</time>
      </trkpt>
      <trkpt lat="46.02646" lon="6.77004">
        <ele>1090.4</ele>
        <time>2023-08-11T15:45:05Z</time>
      </trkpt>
      <trkpt lat="46.02629" lon="6.76994">
        <ele>1094.7</ele>
        <time>2023-08-11T15:45:20Z</time>
      </trkpt>
      <trkpt lat="46.0261" lon="6.7699">
        <ele>1099.8</ele>
        <time>2023-08-11T15:45:35Z</time>
      </trkpt>
      <trkpt lat="46.02594" lon="6.7698">
        <ele>1104.6</ele>
        <time>2023-08-11T15:45:50Z</time>
      </trkpt>
      <trkpt lat="46.02581" lon="6.76962">
        <ele>1109.4</ele>
        <time>2023-08-11T15:46:04Z</time>
      </trkpt>
      <trkpt lat="46.02565" lon="6.76949">
        <ele>1114.4</ele>
        <time>2023-08-11T15:46:17Z</time>
      </trkpt>
      <trkpt lat="46.02546" lon="6.7694">
        <ele>1119.5</ele>
        <time>2023-08-11T15:46:31Z</time>
      </trkpt>
      <trkpt lat="46.02529" lon="6.7693">
        <ele>1124.3</ele>
        <time>2023-08-11T15:46:44Z</time>
      </trkpt>
      <trkpt lat="46.02511" lon="6.76922">
        <ele>1128.5</ele>
        <time>2023-08-11T15:46:56Z</time>
      </trkpt>
      <trkpt lat="46.02493" lon="6.76921">
        <ele>1130.8</ele>
        <time>2023-08-11T15:47:06Z</time>
      </trkpt>
      <trkpt lat="46.02474" lon="6.76913">
        <ele>1132.4</ele>
        <time>2023-08-11T15:47:15Z</time>
      </trkpt>
      <trkpt lat="46.02458" lon="6.76898">
        <ele>1134.1</ele>
        <time>2023-08-11T15:47:23Z</time>
      </trkpt>
      <trkpt lat="46.02438" lon="6.76892">
        <ele>1136</ele>
        <time>2023-08-11T15:47:31Z</time>
      </trkpt>
      <trkpt lat="46.02419" lon="6.76892">
        <ele>1137.8</ele>
        <time>2023-08-11T15:47:38Z</time>
      </trkpt>
      <trkpt lat="46.02401" lon="6.76885">
        <ele>1138.7</ele>
        <time>2023-08-11T15:47:44Z</time>
      </trkpt>
      <trkpt lat="46.02381" lon="6.76877">
        <ele>1139.1</ele>
        <time>2023-08-11T15:47:51Z</time>
      </trkpt>
      <trkpt lat="46.02363" lon="6.76868">
        <ele>1140.1</ele>
        <time>2023-08-11T15:47:58Z</time>
      </trkpt>
      <trkpt lat="46.02343" lon="6.76862">
        <ele>1141.4</ele>
        <time>2023-08-11T15:48:06Z</time>
      </trkpt>
      <trkpt lat="46.02326" lon="6.7685">
        <ele>1143.1</ele>
        <time>2023-08-11T15:48:13Z</time>
      </trkpt>
      <trkpt lat="46.0231" lon="6.76839">
        <ele>1144.6</ele>
        <time>2023-08-11T15:48:20Z</time>
      </trkpt>
      <trkpt lat="46.02292" lon="6.76829">
        <ele>1145.7</ele>
        <time>2023-08-11T15:48:27Z</time>
      </trkpt>
      <trkpt lat="46.02272" lon="6.7683">
        <ele>1145.9</ele>
        <time>2023-08-11T15:48:34Z</time>
      </trkpt>
      <trkpt lat="46.02253" lon="6.76831">
        <ele>1146.2</ele>
        <time>2023-08-11T15:48:40Z</time>
      </trkpt>
      <trkpt lat="46.02235" lon="6.76833">
        <ele>1146.8</ele>
        <time>2023-08-11T15:48:46Z</time>
      </trkpt>
      <trkpt lat="46.0223" lon="6.76836">
        <ele>1146.9</ele>
        <time>2023-08-11T15:48:47Z</time>
      </trkpt>
      <trkpt lat="46.0222" lon="6.76854">
        <ele>1153.1</ele>
        <time>2023-08-11T15:48:55Z</time>
      </trkpt>
      <trkpt lat="46.02204" lon="6.76839">
        <ele>1156</ele>
        <time>2023-08-11T15:49:12Z</time>
      </trkpt>
      <trkpt lat="46.02201" lon="6.76837">
        <ele>1156.5</ele>
        <time>2023-08-11T15:49:16Z</time>
      </trkpt>
      <trkpt lat="46.02189" lon="6.76819">
        <ele>1158.5</ele>
        <time>2023-08-11T15:49:25Z</time>
      </trkpt>
      <trkpt lat="46.02173" lon="6.76803">
        <ele>1159.2</ele>
        <time>2023-08-11T15:49:34Z</time>
      </trkpt>
      <trkpt lat="46.0217" lon="6.76797">
        <ele>1159.6</ele>
        <time>2023-08-11T15:49:39Z</time>
      </trkpt>
      <trkpt lat="46.02168" lon="6.76794">
        <ele>1159.8</ele>
        <time>2023-08-11T15:49:41Z</time>
      </trkpt>
      <trkpt lat="46.02166" lon="6.76791">
        <ele>1160.2</ele>
        <time>2023-08-11T15:49:44Z</time>
      </trkpt>
      <trkpt lat="46.02149" lon="6.7678">
        <ele>1163.6</ele>
        <time>2023-08-11T15:49:55Z</time>
      </trkpt>
      <trkpt lat="46.02132" lon="6.7677">
        <ele>1166.5</ele>
        <time>2023-08-11T15:50:08Z</time>
      </trkpt>
      <trkpt lat="46.02129" lon="6.76767">
        <ele>1167</ele>
        <time>2023-08-11T15:50:10Z</time>
      </trkpt>
      <trkpt lat="46.02126" lon="6.76764">
        <ele>1167.6</ele>
        <time>2023-08-11T15:50:15Z</time>
      </trkpt>
      <trkpt lat="46.02126" lon="6.76766">
        <ele>1167.9</ele>
        <time>2023-08-11T15:50:18Z</time>
      </trkpt>
      <trkpt lat="46.02125" lon="6.76768">
        <ele>1168.3</ele>
        <time>2023-08-11T15:50:21Z</time>
      </trkpt>
      <trkpt lat="46.02124" lon="6.76776">
        <ele>1169.7</ele>
        <time>2023-08-11T15:50:28Z</time>
      </trkpt>
      <trkpt lat="46.02124" lon="6.76776">
        <ele>1169.8</ele>
        <time>2023-08-11T15:50:31Z</time>
      </trkpt>
      <trkpt lat="46.0211" lon="6.76764">
        <ele>1174.6</ele>
        <time>2023-08-11T15:50:51Z</time>
      </trkpt>
      <trkpt lat="46.02105" lon="6.76776">
        <ele>1180.7</ele>
        <time>2023-08-11T15:50:58Z</time>
      </trkpt>
      <trkpt lat="46.02102" lon="6.76776">
        <ele>1181.1</ele>
        <time>2023-08-11T15:51:00Z</time>
      </trkpt>
      <trkpt lat="46.02089" lon="6.76755">
        <ele>1186.7</ele>
        <time>2023-08-11T15:51:10Z</time>
      </trkpt>
      <trkpt lat="46.0208" lon="6.76733">
        <ele>1188.1</ele>
        <time>2023-08-11T15:51:18Z</time>
      </trkpt>
      <trkpt lat="46.02072" lon="6.76709">
        <ele>1190</ele>
        <time>2023-08-11T15:51:28Z</time>
      </trkpt>
      <trkpt lat="46.02068" lon="6.76681">
        <ele>1192.4</ele>
        <time>2023-08-11T15:51:38Z</time>
      </trkpt>
      <trkpt lat="46.02068" lon="6.76678">
        <ele>1192.8</ele>
        <time>2023-08-11T15:51:43Z</time>
      </trkpt>
      <trkpt lat="46.02068" lon="6.76703">
        <ele>1191.9</ele>
        <time>2023-08-11T15:51:52Z</time>
      </trkpt>
      <trkpt lat="46.02067" lon="6.76703">
        <ele>1191.6</ele>
        <time>2023-08-11T15:51:54Z</time>
      </trkpt>
      <trkpt lat="46.02065" lon="6.76706">
        <ele>1191.1</ele>
        <time>2023-08-11T15:51:58Z</time>
      </trkpt>
      <trkpt lat="46.02059" lon="6.76717">
        <ele>1189.8</ele>
        <time>2023-08-11T15:52:03Z</time>
      </trkpt>
      <trkpt lat="46.02061" lon="6.76742">
        <ele>1187.6</ele>
        <time>2023-08-11T15:52:11Z</time>
      </trkpt>
      <trkpt lat="46.02071" lon="6.76766">
        <ele>1185.8</ele>
        <time>2023-08-11T15:52:17Z</time>
      </trkpt>
      <trkpt lat="46.02079" lon="6.76793">
        <ele>1183.6</ele>
        <time>2023-08-11T15:52:24Z</time>
      </trkpt>
      <trkpt lat="46.02093" lon="6.76814">
        <ele>1181.4</ele>
        <time>2023-08-11T15:52:31Z</time>
      </trkpt>
      <trkpt lat="46.02114" lon="6.76815">
        <ele>1179.4</ele>
        <time>2023-08-11T15:52:37Z</time>
      </trkpt>
      <trkpt lat="46.02126" lon="6.76819">
        <ele>1175.3</ele>
        <time>2023-08-11T15:52:42Z</time>
      </trkpt>
      <trkpt lat="46.02129" lon="6.76848">
        <ele>1172.6</ele>
        <time>2023-08-11T15:52:49Z</time>
      </trkpt>
      <trkpt lat="46.02132" lon="6.76875">
        <ele>1170.7</ele>
        <time>2023-08-11T15:52:54Z</time>
      </trkpt>
      <trkpt lat="46.02131" lon="6.76891">
        <ele>1169.5</ele>
        <time>2023-08-11T15:52:59Z</time>
      </trkpt>
      <trkpt lat="46.02146" lon="6.76903">
        <ele>1163.9</ele>
        <time>2023-08-11T15:53:07Z</time>
      </trkpt>
      <trkpt lat="46.0216" lon="6.76895">
        <ele>1161.1</ele>
        <time>2023-08-11T15:53:13Z</time>
      </trkpt>
      <trkpt lat="46.02166" lon="6.7692">
        <ele>1156.8</ele>
        <time>2023-08-11T15:53:20Z</time>
      </trkpt>
      <trkpt lat="46.02181" lon="6.76938">
        <ele>1152</ele>
        <time>2023-08-11T15:53:28Z</time>
      </trkpt>
      <trkpt lat="46.02195" lon="6.76955">
        <ele>1147.6</ele>
        <time>2023-08-11T15:53:35Z</time>
      </trkpt>
      <trkpt lat="46.02208" lon="6.76975">
        <ele>1143.5</ele>
        <time>2023-08-11T15:53:41Z</time>
      </trkpt>
      <trkpt lat="46.02215" lon="6.76982">
        <ele>1141.7</ele>
        <time>2023-08-11T15:53:45Z</time>
      </trkpt>
      <trkpt lat="46.0223" lon="6.77">
        <ele>1137</ele>
        <time>2023-08-11T15:53:53Z</time>
      </trkpt>
      <trkpt lat="46.02233" lon="6.77027">
        <ele>1134.6</ele>
        <time>2023-08-11T15:54:00Z</time>
      </trkpt>
      <trkpt lat="46.02246" lon="6.77053">
        <ele>1131.5</ele>
        <time>2023-08-11T15:54:07Z</time>
      </trkpt>
      <trkpt lat="46.02262" lon="6.77072">
        <ele>1128</ele>
        <time>2023-08-11T15:54:12Z</time>
      </trkpt>
      <trkpt lat="46.02268" lon="6.77082">
        <ele>1127</ele>
        <time>2023-08-11T15:54:14Z</time>
      </trkpt>
      <trkpt lat="46.0228" lon="6.77104">
        <ele>1125</ele>
        <time>2023-08-11T15:54:20Z</time>
      </trkpt>
      <trkpt lat="46.02286" lon="6.77105">
        <ele>1124.1</ele>
        <time>2023-08-11T15:54:21Z</time>
      </trkpt>
      <trkpt lat="46.023" lon="6.77125">
        <ele>1120.2</ele>
        <time>2023-08-11T15:54:29Z</time>
      </trkpt>
      <trkpt lat="46.02314" lon="6.77145">
        <ele>1116.4</ele>
        <time>2023-08-11T15:54:37Z</time>
      </trkpt>
      <trkpt lat="46.02319" lon="6.7717">
        <ele>1113.1</ele>
        <time>2023-08-11T15:54:44Z</time>
      </trkpt>
      <trkpt lat="46.02318" lon="6.77177">
        <ele>1112.4</ele>
        <time>2023-08-11T15:54:45Z</time>
      </trkpt>
      <trkpt lat="46.02311" lon="6.77202">
        <ele>1109.7</ele>
        <time>2023-08-11T15:54:53Z</time>
      </trkpt>
      <trkpt lat="46.02299" lon="6.77226">
        <ele>1107.6</ele>
        <time>2023-08-11T15:55:00Z</time>
      </trkpt>
      <trkpt lat="46.02297" lon="6.77234">
        <ele>1107.1</ele>
        <time>2023-08-11T15:55:01Z</time>
      </trkpt>
      <trkpt lat="46.02293" lon="6.77262">
        <ele>1105.8</ele>
        <time>2023-08-11T15:55:08Z</time>
      </trkpt>
      <trkpt lat="46.02286" lon="6.77286">
        <ele>1105</ele>
        <time>2023-08-11T15:55:14Z</time>
      </trkpt>
      <trkpt lat="46.02283" lon="6.77313">
        <ele>1102</ele>
        <time>2023-08-11T15:55:20Z</time>
      </trkpt>
      <trkpt lat="46.02281" lon="6.77341">
        <ele>1098.5</ele>
        <time>2023-08-11T15:55:27Z</time>
      </trkpt>
      <trkpt lat="46.02282" lon="6.77366">
        <ele>1094.5</ele>
        <time>2023-08-11T15:55:34Z</time>
      </trkpt>
      <trkpt lat="46.02276" lon="6.77395">
        <ele>1089</ele>
        <time>2023-08-11T15:55:41Z</time>
      </trkpt>
      <trkpt lat="46.02274" lon="6.77409">
        <ele>1086.4</ele>
        <time>2023-08-11T15:55:45Z</time>
      </trkpt>
      <trkpt lat="46.02281" lon="6.77405">
        <ele>1085.9</ele>
        <time>2023-08-11T15:55:47Z</time>
      </trkpt>
      <trkpt lat="46.02299" lon="6.77391">
        <ele>1084.3</ele>
        <time>2023-08-11T15:55:53Z</time>
      </trkpt>
      <trkpt lat="46.02308" lon="6.77382">
        <ele>1083.4</ele>
        <time>2023-08-11T15:55:58Z</time>
      </trkpt>
      <trkpt lat="46.02317" lon="6.77405">
        <ele>1076.1</ele>
        <time>2023-08-11T15:56:08Z</time>
      </trkpt>
      <trkpt lat="46.02326" lon="6.7743">
        <ele>1070.8</ele>
        <time>2023-08-11T15:56:16Z</time>
      </trkpt>
      <trkpt lat="46.02343" lon="6.7744">
        <ele>1066.1</ele>
        <time>2023-08-11T15:56:23Z</time>
      </trkpt>
      <trkpt lat="46.02349" lon="6.77441">
        <ele>1064.7</ele>
        <time>2023-08-11T15:56:24Z</time>
      </trkpt>
      <trkpt lat="46.0236" lon="6.77441">
        <ele>1062.2</ele>
        <time>2023-08-11T15:56:30Z</time>
      </trkpt>
      <trkpt lat="46.02361" lon="6.77471">
        <ele>1059.2</ele>
        <time>2023-08-11T15:56:39Z</time>
      </trkpt>
      <trkpt lat="46.02367" lon="6.77496">
        <ele>1057</ele>
        <time>2023-08-11T15:56:46Z</time>
      </trkpt>
      <trkpt lat="46.02382" lon="6.77512">
        <ele>1053</ele>
        <time>2023-08-11T15:56:51Z</time>
      </trkpt>
      <trkpt lat="46.02397" lon="6.77533">
        <ele>1047.9</ele>
        <time>2023-08-11T15:56:57Z</time>
      </trkpt>
      <trkpt lat="46.02411" lon="6.77554">
        <ele>1044.4</ele>
        <time>2023-08-11T15:57:03Z</time>
      </trkpt>
      <trkpt lat="46.02413" lon="6.7758">
        <ele>1041.1</ele>
        <time>2023-08-11T15:57:08Z</time>
      </trkpt>
      <trkpt lat="46.02412" lon="6.77606">
        <ele>1041.3</ele>
        <time>2023-08-11T15:57:12Z</time>
      </trkpt>
      <trkpt lat="46.02411" lon="6.77617">
        <ele>1041.7</ele>
        <time>2023-08-11T15:57:14Z</time>
      </trkpt>
      <trkpt lat="46.02406" lon="6.77632">
        <ele>1042</ele>
        <time>2023-08-11T15:57:17Z</time>
      </trkpt>
      <trkpt lat="46.02393" lon="6.77656">
        <ele>1042.3</ele>
        <time>2023-08-11T15:57:24Z</time>
      </trkpt>
      <trkpt lat="46.02386" lon="6.7768">
        <ele>1043.2</ele>
        <time>2023-08-11T15:57:31Z</time>
      </trkpt>
      <trkpt lat="46.02375" lon="6.77703">
        <ele>1044.8</ele>
        <time>2023-08-11T15:57:39Z</time>
      </trkpt>
      <trkpt lat="46.02364" lon="6.77726">
        <ele>1045.5</ele>
        <time>2023-08-11T15:57:47Z</time>
      </trkpt>
      <trkpt lat="46.0235" lon="6.77746">
        <ele>1044.9</ele>
        <time>2023-08-11T15:57:54Z</time>
      </trkpt>
      <trkpt lat="46.02335" lon="6.77764">
        <ele>1045</ele>
        <time>2023-08-11T15:58:01Z</time>
      </trkpt>
      <trkpt lat="46.0232" lon="6.77779">
        <ele>1046</ele>
        <time>2023-08-11T15:58:09Z</time>
      </trkpt>
      <trkpt lat="46.02301" lon="6.77787">
        <ele>1047.1</ele>
        <time>2023-08-11T15:58:22Z</time>
      </trkpt>
      <trkpt lat="46.0229" lon="6.77812">
        <ele>1047.6</ele>
        <time>2023-08-11T15:58:30Z</time>
      </trkpt>
      <trkpt lat="46.02282" lon="6.7784">
        <ele>1046.9</ele>
        <time>2023-08-11T15:58:36Z</time>
      </trkpt>
      <trkpt lat="46.02286" lon="6.77869">
        <ele>1044.7</ele>
        <time>2023-08-11T15:58:42Z</time>
      </trkpt>
      <trkpt lat="46.0228" lon="6.77898">
        <ele>1042.2</ele>
        <time>2023-08-11T15:58:48Z</time>
      </trkpt>
      <trkpt lat="46.02281" lon="6.77926">
        <ele>1039.1</ele>
        <time>2023-08-11T15:58:54Z</time>
      </trkpt>
      <trkpt lat="46.0229" lon="6.77951">
        <ele>1036.2</ele>
        <time>2023-08-11T15:59:01Z</time>
      </trkpt>
      <trkpt lat="46.02295" lon="6.77977">
        <ele>1033.7</ele>
        <time>2023-08-11T15:59:08Z</time>
      </trkpt>
      <trkpt lat="46.02289" lon="6.78002">
        <ele>1031.1</ele>
        <time>2023-08-11T15:59:15Z</time>
      </trkpt>
      <trkpt lat="46.02276" lon="6.78025">
        <ele>1028.2</ele>
        <time>2023-08-11T15:59:20Z</time>
      </trkpt>
      <trkpt lat="46.02272" lon="6.7805">
        <ele>1026</ele>
        <time>2023-08-11T15:59:27Z</time>
      </trkpt>
      <trkpt lat="46.02272" lon="6.78077">
        <ele>1022.6</ele>
        <time>2023-08-11T15:59:34Z</time>
      </trkpt>
      <trkpt lat="46.02272" lon="6.78105">
        <ele>1019.2</ele>
        <time>2023-08-11T15:59:41Z</time>
      </trkpt>
      <trkpt lat="46.02279" lon="6.7813">
        <ele>1016.5</ele>
        <time>2023-08-11T15:59:46Z</time>
      </trkpt>
      <trkpt lat="46.02283" lon="6.78155">
        <ele>1014.5</ele>
        <time>2023-08-11T15:59:52Z</time>
      </trkpt>
      <trkpt lat="46.02276" lon="6.78184">
        <ele>1011.4</ele>
        <time>2023-08-11T15:59:58Z</time>
      </trkpt>
      <trkpt lat="46.02287" lon="6.78204">
        <ele>1009.6</ele>
        <time>2023-08-11T16:00:05Z</time>
      </trkpt>
      <trkpt lat="46.02292" lon="6.78206">
        <ele>1009.6</ele>
        <time>2023-08-11T16:00:06Z</time>
      </trkpt>
      <trkpt lat="46.0231" lon="6.78203">
        <ele>1011.7</ele>
        <time>2023-08-11T16:00:15Z</time>
      </trkpt>
      <trkpt lat="46.02326" lon="6.78191">
        <ele>1015.4</ele>
        <time>2023-08-11T16:00:32Z</time>
      </trkpt>
      <trkpt lat="46.0234" lon="6.78179">
        <ele>1019.5</ele>
        <time>2023-08-11T16:00:42Z</time>
      </trkpt>
      <trkpt lat="46.02347" lon="6.78177">
        <ele>1021.4</ele>
        <time>2023-08-11T16:00:45Z</time>
      </trkpt>
      <trkpt lat="46.02354" lon="6.78171">
        <ele>1023.5</ele>
        <time>2023-08-11T16:00:49Z</time>
      </trkpt>
      <trkpt lat="46.02366" lon="6.78158">
        <ele>1027.4</ele>
        <time>2023-08-11T16:01:05Z</time>
      </trkpt>
      <trkpt lat="46.02377" lon="6.78138">
        <ele>1032</ele>
        <time>2023-08-11T16:01:21Z</time>
      </trkpt>
      <trkpt lat="46.02387" lon="6.78135">
        <ele>1034.7</ele>
        <time>2023-08-11T16:01:29Z</time>
      </trkpt>
      <trkpt lat="46.02395" lon="6.78146">
        <ele>1038.2</ele>
        <time>2023-08-11T16:01:35Z</time>
      </trkpt>
      <trkpt lat="46.02399" lon="6.78168">
        <ele>1043.3</ele>
        <time>2023-08-11T16:01:51Z</time>
      </trkpt>
      <trkpt lat="46.024" lon="6.78169">
        <ele>1043.8</ele>
        <time>2023-08-11T16:01:53Z</time>
      </trkpt>
      <trkpt lat="46.024" lon="6.78172">
        <ele>1044.5</ele>
        <time>2023-08-11T16:01:59Z</time>
      </trkpt>
      <trkpt lat="46.02398" lon="6.78178">
        <ele>1045.9</ele>
        <time>2023-08-11T16:02:04Z</time>
      </trkpt>
      <trkpt lat="46.02398" lon="6.78185">
        <ele>1047.2</ele>
        <time>2023-08-11T16:02:08Z</time>
      </trkpt>
      <trkpt lat="46.02398" lon="6.78189">
        <ele>1047.9</ele>
        <time>2023-08-11T16:02:09Z</time>
      </trkpt>
      <trkpt lat="46.02396" lon="6.78195">
        <ele>1049.1</ele>
        <time>2023-08-11T16:02:14Z</time>
      </trkpt>
      <trkpt lat="46.02396" lon="6.78218">
        <ele>1053.2</ele>
        <time>2023-08-11T16:02:27Z</time>
      </trkpt>
      <trkpt lat="46.02386" lon="6.7824">
        <ele>1057.2</ele>
        <time>2023-08-11T16:02:37Z</time>
      </trkpt>
      <trkpt lat="46.02381" lon="6.78258">
        <ele>1059.7</ele>
        <time>2023-08-11T16:02:47Z</time>
      </trkpt>
      <trkpt lat="46.02371" lon="6.7828">
        <ele>1062.8</ele>
        <time>2023-08-11T16:02:57Z</time>
      </trkpt>
      <trkpt lat="46.02359" lon="6.78294">
        <ele>1065.5</ele>
        <time>2023-08-11T16:03:08Z</time>
      </trkpt>
      <trkpt lat="46.02357" lon="6.78299">
        <ele>1066.2</ele>
        <time>2023-08-11T16:03:11Z</time>
      </trkpt>
      <trkpt lat="46.0235" lon="6.78306">
        <ele>1068.1</ele>
        <time>2023-08-11T16:03:18Z</time>
      </trkpt>
      <trkpt lat="46.02343" lon="6.78332">
        <ele>1072.2</ele>
        <time>2023-08-11T16:03:29Z</time>
      </trkpt>
      <trkpt lat="46.02337" lon="6.78357">
        <ele>1075.8</ele>
        <time>2023-08-11T16:03:40Z</time>
      </trkpt>
      <trkpt lat="46.02327" lon="6.78381">
        <ele>1078.4</ele>
        <time>2023-08-11T16:03:52Z</time>
      </trkpt>
      <trkpt lat="46.02319" lon="6.78407">
        <ele>1080.4</ele>
        <time>2023-08-11T16:04:00Z</time>
      </trkpt>
      <trkpt lat="46.0232" lon="6.78435">
        <ele>1082.1</ele>
        <time>2023-08-11T16:04:09Z</time>
      </trkpt>
      <trkpt lat="46.0232" lon="6.78463">
        <ele>1084.3</ele>
        <time>2023-08-11T16:04:18Z</time>
      </trkpt>
      <trkpt lat="46.02325" lon="6.7849">
        <ele>1086.3</ele>
        <time>2023-08-11T16:04:26Z</time>
      </trkpt>
      <trkpt lat="46.02327" lon="6.78516">
        <ele>1087.8</ele>
        <time>2023-08-11T16:04:34Z</time>
      </trkpt>
      <trkpt lat="46.02326" lon="6.78544">
        <ele>1089.5</ele>
        <time>2023-08-11T16:04:44Z</time>
      </trkpt>
      <trkpt lat="46.02316" lon="6.78568">
        <ele>1092</ele>
        <time>2023-08-11T16:04:54Z</time>
      </trkpt>
      <trkpt lat="46.02307" lon="6.78591">
        <ele>1094.2</ele>
        <time>2023-08-11T16:05:05Z</time>
      </trkpt>
      <trkpt lat="46.02304" lon="6.78594">
        <ele>1094.7</ele>
        <time>2023-08-11T16:05:06Z</time>
      </trkpt>
      <trkpt lat="46.023" lon="6.78601">
        <ele>1095.8</ele>
        <time>2023-08-11T16:05:15Z</time>
      </trkpt>
      <trkpt lat="46.02299" lon="6.78603">
        <ele>1098</ele>
        <time>2023-08-11T16:05:17Z</time>
      </trkpt>
      <trkpt lat="46.02295" lon="6.78608">
        <ele>1097.9</ele>
        <time>2023-08-11T16:05:21Z</time>
      </trkpt>
      <trkpt lat="46.02294" lon="6.78611">
        <ele>1098.6</ele>
        <time>2023-08-11T16:05:24Z</time>
      </trkpt>
      <trkpt lat="46.02295" lon="6.78616">
        <ele>1100.9</ele>
        <time>2023-08-11T16:05:31Z</time>
      </trkpt>
      <trkpt lat="46.02295" lon="6.78616">
        <ele>1101.5</ele>
        <time>2023-08-11T16:05:34Z</time>
      </trkpt>
      <trkpt lat="46.02297" lon="6.78622">
        <ele>1106.6</ele>
        <time>2023-08-11T16:05:41Z</time>
      </trkpt>
      <trkpt lat="46.02298" lon="6.78622">
        <ele>1107.3</ele>
        <time>2023-08-11T16:05:42Z</time>
      </trkpt>
      <trkpt lat="46.02299" lon="6.78623">
        <ele>1109.2</ele>
        <time>2023-08-11T16:05:45Z</time>
      </trkpt>
      <trkpt lat="46.023" lon="6.78624">
        <ele>1109</ele>
        <time>2023-08-11T16:05:47Z</time>
      </trkpt>
      <trkpt lat="46.02304" lon="6.78624">
        <ele>1108.3</ele>
        <time>2023-08-11T16:05:52Z</time>
      </trkpt>
      <trkpt lat="46.02323" lon="6.78614">
        <ele>1105.5</ele>
        <time>2023-08-11T16:06:00Z</time>
      </trkpt>
      <trkpt lat="46.02337" lon="6.78594">
        <ele>1103.1</ele>
        <time>2023-08-11T16:06:07Z</time>
      </trkpt>
      <trkpt lat="46.02349" lon="6.78576">
        <ele>1101.4</ele>
        <time>2023-08-11T16:06:13Z</time>
      </trkpt>
      <trkpt lat="46.02364" lon="6.78559">
        <ele>1100.2</ele>
        <time>2023-08-11T16:06:19Z</time>
      </trkpt>
      <trkpt lat="46.0238" lon="6.7854">
        <ele>1099.1</ele>
        <time>2023-08-11T16:06:26Z</time>
      </trkpt>
      <trkpt lat="46.02391" lon="6.7852">
        <ele>1098.2</ele>
        <time>2023-08-11T16:06:32Z</time>
      </trkpt>
      <trkpt lat="46.02405" lon="6.78498">
        <ele>1097.1</ele>
        <time>2023-08-11T16:06:38Z</time>
      </trkpt>
      <trkpt lat="46.02419" lon="6.78478">
        <ele>1096.2</ele>
        <time>2023-08-11T16:06:44Z</time>
      </trkpt>
      <trkpt lat="46.02432" lon="6.78456">
        <ele>1095.9</ele>
        <time>2023-08-11T16:06:50Z</time>
      </trkpt>
      <trkpt lat="46.02443" lon="6.78432">
        <ele>1095.6</ele>
        <time>2023-08-11T16:06:57Z</time>
      </trkpt>
      <trkpt lat="46.02456" lon="6.78409">
        <ele>1094.5</ele>
        <time>2023-08-11T16:07:05Z</time>
      </trkpt>
      <trkpt lat="46.0247" lon="6.78389">
        <ele>1093.5</ele>
        <time>2023-08-11T16:07:11Z</time>
      </trkpt>
      <trkpt lat="46.02486" lon="6.78369">
        <ele>1092.5</ele>
        <time>2023-08-11T16:07:17Z</time>
      </trkpt>
      <trkpt lat="46.02503" lon="6.78355">
        <ele>1091.2</ele>
        <time>2023-08-11T16:07:23Z</time>
      </trkpt>
      <trkpt lat="46.0252" lon="6.7834">
        <ele>1089.9</ele>
        <time>2023-08-11T16:07:29Z</time>
      </trkpt>
      <trkpt lat="46.02532" lon="6.78314">
        <ele>1089.2</ele>
        <time>2023-08-11T16:07:35Z</time>
      </trkpt>
      <trkpt lat="46.02539" lon="6.7829">
        <ele>1089.3</ele>
        <time>2023-08-11T16:07:42Z</time>
      </trkpt>
      <trkpt lat="46.02549" lon="6.78269">
        <ele>1088.4</ele>
        <time>2023-08-11T16:07:49Z</time>
      </trkpt>
      <trkpt lat="46.02564" lon="6.78253">
        <ele>1086</ele>
        <time>2023-08-11T16:07:56Z</time>
      </trkpt>
      <trkpt lat="46.02582" lon="6.78238">
        <ele>1082.8</ele>
        <time>2023-08-11T16:08:04Z</time>
      </trkpt>
      <trkpt lat="46.02598" lon="6.78219">
        <ele>1079.6</ele>
        <time>2023-08-11T16:08:11Z</time>
      </trkpt>
      <trkpt lat="46.02607" lon="6.78196">
        <ele>1077.4</ele>
        <time>2023-08-11T16:08:16Z</time>
      </trkpt>
      <trkpt lat="46.02617" lon="6.78171">
        <ele>1076</ele>
        <time>2023-08-11T16:08:22Z</time>
      </trkpt>
      <trkpt lat="46.02627" lon="6.78147">
        <ele>1075.1</ele>
        <time>2023-08-11T16:08:28Z</time>
      </trkpt>
      <trkpt lat="46.02643" lon="6.7813">
        <ele>1073.7</ele>
        <time>2023-08-11T16:08:35Z</time>
      </trkpt>
      <trkpt lat="46.02662" lon="6.78119">
        <ele>1072.2</ele>
        <time>2023-08-11T16:08:42Z</time>
      </trkpt>
      <trkpt lat="46.02679" lon="6.78103">
        <ele>1071.6</ele>
        <time>2023-08-11T16:08:49Z</time>
      </trkpt>
      <trkpt lat="46.02696" lon="6.78089">
        <ele>1071.7</ele>
        <time>2023-08-11T16:08:56Z</time>
      </trkpt>
      <trkpt lat="46.02714" lon="6.78075">
        <ele>1071.4</ele>
        <time>2023-08-11T16:09:03Z</time>
      </trkpt>
      <trkpt lat="46.0273" lon="6.78062">
        <ele>1070.7</ele>
        <time>2023-08-11T16:09:09Z</time>
      </trkpt>
      <trkpt lat="46.02745" lon="6.78043">
        <ele>1069.8</ele>
        <time>2023-08-11T16:09:15Z</time>
      </trkpt>
      <trkpt lat="46.02759" lon="6.78022">
        <ele>1069</ele>
        <time>2023-08-11T16:09:21Z</time>
      </trkpt>
      <trkpt lat="46.02773" lon="6.78003">
        <ele>1068.7</ele>
        <time>2023-08-11T16:09:27Z</time>
      </trkpt>
      <trkpt lat="46.02787" lon="6.77983">
        <ele>1068.8</ele>
        <time>2023-08-11T16:09:34Z</time>
      </trkpt>
      <trkpt lat="46.028" lon="6.77965">
        <ele>1069</ele>
        <time>2023-08-11T16:09:41Z</time>
      </trkpt>
      <trkpt lat="46.02817" lon="6.77949">
        <ele>1069.5</ele>
        <time>2023-08-11T16:09:48Z</time>
      </trkpt>
      <trkpt lat="46.02831" lon="6.77929">
        <ele>1069.5</ele>
        <time>2023-08-11T16:09:56Z</time>
      </trkpt>
      <trkpt lat="46.02847" lon="6.77914">
        <ele>1069</ele>
        <time>2023-08-11T16:10:03Z</time>
      </trkpt>
      <trkpt lat="46.02864" lon="6.77899">
        <ele>1068.6</ele>
        <time>2023-08-11T16:10:10Z</time>
      </trkpt>
      <trkpt lat="46.02882" lon="6.77883">
        <ele>1068.6</ele>
        <time>2023-08-11T16:10:17Z</time>
      </trkpt>
      <trkpt lat="46.02898" lon="6.77865">
        <ele>1069.4</ele>
        <time>2023-08-11T16:10:24Z</time>
      </trkpt>
      <trkpt lat="46.02907" lon="6.77838">
        <ele>1071</ele>
        <time>2023-08-11T16:10:31Z</time>
      </trkpt>
      <trkpt lat="46.02918" lon="6.77818">
        <ele>1072.9</ele>
        <time>2023-08-11T16:10:38Z</time>
      </trkpt>
      <trkpt lat="46.02935" lon="6.77802">
        <ele>1074.6</ele>
        <time>2023-08-11T16:10:47Z</time>
      </trkpt>
      <trkpt lat="46.02955" lon="6.77794">
        <ele>1076</ele>
        <time>2023-08-11T16:10:56Z</time>
      </trkpt>
      <trkpt lat="46.02972" lon="6.77787">
        <ele>1077.2</ele>
        <time>2023-08-11T16:11:03Z</time>
      </trkpt>
      <trkpt lat="46.0299" lon="6.77781">
        <ele>1077.8</ele>
        <time>2023-08-11T16:11:11Z</time>
      </trkpt>
      <trkpt lat="46.03007" lon="6.77768">
        <ele>1077.7</ele>
        <time>2023-08-11T16:11:17Z</time>
      </trkpt>
      <trkpt lat="46.03023" lon="6.77755">
        <ele>1077.9</ele>
        <time>2023-08-11T16:11:24Z</time>
      </trkpt>
      <trkpt lat="46.03038" lon="6.77739">
        <ele>1078.5</ele>
        <time>2023-08-11T16:11:31Z</time>
      </trkpt>
      <trkpt lat="46.03055" lon="6.77727">
        <ele>1078.9</ele>
        <time>2023-08-11T16:11:37Z</time>
      </trkpt>
      <trkpt lat="46.03075" lon="6.77717">
        <ele>1079.5</ele>
        <time>2023-08-11T16:11:44Z</time>
      </trkpt>
      <trkpt lat="46.03094" lon="6.77709">
        <ele>1080.3</ele>
        <time>2023-08-11T16:11:51Z</time>
      </trkpt>
      <trkpt lat="46.03111" lon="6.77694">
        <ele>1081.3</ele>
        <time>2023-08-11T16:11:58Z</time>
      </trkpt>
      <trkpt lat="46.03125" lon="6.77677">
        <ele>1081.6</ele>
        <time>2023-08-11T16:12:05Z</time>
      </trkpt>
      <trkpt lat="46.03141" lon="6.77663">
        <ele>1080.8</ele>
        <time>2023-08-11T16:12:12Z</time>
      </trkpt>
      <trkpt lat="46.03154" lon="6.77643">
        <ele>1078.1</ele>
        <time>2023-08-11T16:12:19Z</time>
      </trkpt>
      <trkpt lat="46.03166" lon="6.77624">
        <ele>1074</ele>
        <time>2023-08-11T16:12:26Z</time>
      </trkpt>
      <trkpt lat="46.03184" lon="6.77622">
        <ele>1069.6</ele>
        <time>2023-08-11T16:12:33Z</time>
      </trkpt>
      <trkpt lat="46.03204" lon="6.77621">
        <ele>1065.7</ele>
        <time>2023-08-11T16:12:42Z</time>
      </trkpt>
      <trkpt lat="46.03224" lon="6.7762">
        <ele>1061.8</ele>
        <time>2023-08-11T16:12:50Z</time>
      </trkpt>
      <trkpt lat="46.03241" lon="6.77619">
        <ele>1058.8</ele>
        <time>2023-08-11T16:12:57Z</time>
      </trkpt>
      <trkpt lat="46.0326" lon="6.7762">
        <ele>1053.8</ele>
        <time>2023-08-11T16:13:05Z</time>
      </trkpt>
      <trkpt lat="46.03278" lon="6.77619">
        <ele>1047.5</ele>
        <time>2023-08-11T16:13:12Z</time>
      </trkpt>
      <trkpt lat="46.03297" lon="6.77618">
        <ele>1040.7</ele>
        <time>2023-08-11T16:13:20Z</time>
      </trkpt>
      <trkpt lat="46.03315" lon="6.77622">
        <ele>1033.7</ele>
        <time>2023-08-11T16:13:28Z</time>
      </trkpt>
      <trkpt lat="46.03334" lon="6.77622">
        <ele>1028.7</ele>
        <time>2023-08-11T16:13:35Z</time>
      </trkpt>
      <trkpt lat="46.03349" lon="6.77639">
        <ele>1025.7</ele>
        <time>2023-08-11T16:13:43Z</time>
      </trkpt>
      <trkpt lat="46.03366" lon="6.77648">
        <ele>1022.6</ele>
        <time>2023-08-11T16:13:49Z</time>
      </trkpt>
      <trkpt lat="46.03384" lon="6.77654">
        <ele>1020.2</ele>
        <time>2023-08-11T16:13:55Z</time>
      </trkpt>
      <trkpt lat="46.03402" lon="6.77653">
        <ele>1018</ele>
        <time>2023-08-11T16:14:01Z</time>
      </trkpt>
      <trkpt lat="46.03422" lon="6.77656">
        <ele>1015.7</ele>
        <time>2023-08-11T16:14:09Z</time>
      </trkpt>
      <trkpt lat="46.0344" lon="6.7766">
        <ele>1012.8</ele>
        <time>2023-08-11T16:14:15Z</time>
      </trkpt>
      <trkpt lat="46.03456" lon="6.77648">
        <ele>1010.4</ele>
        <time>2023-08-11T16:14:21Z</time>
      </trkpt>
      <trkpt lat="46.03465" lon="6.77625">
        <ele>1006.2</ele>
        <time>2023-08-11T16:14:32Z</time>
      </trkpt>
      <trkpt lat="46.03485" lon="6.77618">
        <ele>1001.2</ele>
        <time>2023-08-11T16:14:42Z</time>
      </trkpt>
      <trkpt lat="46.03504" lon="6.77614">
        <ele>996.1</ele>
        <time>2023-08-11T16:14:52Z</time>
      </trkpt>
      <trkpt lat="46.03524" lon="6.7761">
        <ele>990.9</ele>
        <time>2023-08-11T16:14:59Z</time>
      </trkpt>
      <trkpt lat="46.03544" lon="6.77609">
        <ele>986.9</ele>
        <time>2023-08-11T16:15:05Z</time>
      </trkpt>
      <trkpt lat="46.03563" lon="6.77611">
        <ele>982.7</ele>
        <time>2023-08-11T16:15:12Z</time>
      </trkpt>
      <trkpt lat="46.03582" lon="6.7762">
        <ele>977.7</ele>
        <time>2023-08-11T16:15:20Z</time>
      </trkpt>
      <trkpt lat="46.03603" lon="6.77622">
        <ele>972.7</ele>
        <time>2023-08-11T16:15:28Z</time>
      </trkpt>
      <trkpt lat="46.03621" lon="6.7762">
        <ele>968.8</ele>
        <time>2023-08-11T16:15:35Z</time>
      </trkpt>
      <trkpt lat="46.03637" lon="6.77606">
        <ele>964.7</ele>
        <time>2023-08-11T16:15:44Z</time>
      </trkpt>
      <trkpt lat="46.03646" lon="6.77582">
        <ele>959.9</ele>
        <time>2023-08-11T16:15:53Z</time>
      </trkpt>
      <trkpt lat="46.03658" lon="6.7756">
        <ele>955</ele>
        <time>2023-08-11T16:16:03Z</time>
      </trkpt>
      <trkpt lat="46.03673" lon="6.77547">
        <ele>950.5</ele>
        <time>2023-08-11T16:16:13Z</time>
      </trkpt>
      <trkpt lat="46.03691" lon="6.77536">
        <ele>945.6</ele>
        <time>2023-08-11T16:16:22Z</time>
      </trkpt>
      <trkpt lat="46.03712" lon="6.77536">
        <ele>940.2</ele>
        <time>2023-08-11T16:16:29Z</time>
      </trkpt>
      <trkpt lat="46.03729" lon="6.77529">
        <ele>935.8</ele>
        <time>2023-08-11T16:16:35Z</time>
      </trkpt>
      <trkpt lat="46.03749" lon="6.77529">
        <ele>931.2</ele>
        <time>2023-08-11T16:16:42Z</time>
      </trkpt>
      <trkpt lat="46.03763" lon="6.77515">
        <ele>927.8</ele>
        <time>2023-08-11T16:16:49Z</time>
      </trkpt>
      <trkpt lat="46.03779" lon="6.775">
        <ele>925.3</ele>
        <time>2023-08-11T16:16:55Z</time>
      </trkpt>
      <trkpt lat="46.03798" lon="6.77493">
        <ele>923.5</ele>
        <time>2023-08-11T16:17:02Z</time>
      </trkpt>
      <trkpt lat="46.03818" lon="6.77486">
        <ele>921.6</ele>
        <time>2023-08-11T16:17:10Z</time>
      </trkpt>
      <trkpt lat="46.03837" lon="6.77476">
        <ele>919.8</ele>
        <time>2023-08-11T16:17:18Z</time>
      </trkpt>
      <trkpt lat="46.03857" lon="6.77472">
        <ele>918.1</ele>
        <time>2023-08-11T16:17:25Z</time>
      </trkpt>
      <trkpt lat="46.03876" lon="6.77466">
        <ele>916.4</ele>
        <time>2023-08-11T16:17:32Z</time>
      </trkpt>
      <trkpt lat="46.03895" lon="6.77463">
        <ele>914.7</ele>
        <time>2023-08-11T16:17:39Z</time>
      </trkpt>
      <trkpt lat="46.03915" lon="6.77457">
        <ele>913</ele>
        <time>2023-08-11T16:17:47Z</time>
      </trkpt>
      <trkpt lat="46.03933" lon="6.77453">
        <ele>911.6</ele>
        <time>2023-08-11T16:17:55Z</time>
      </trkpt>
      <trkpt lat="46.03953" lon="6.77451">
        <ele>910.4</ele>
        <time>2023-08-11T16:18:02Z</time>
      </trkpt>
      <trkpt lat="46.03972" lon="6.77446">
        <ele>909.3</ele>
        <time>2023-08-11T16:18:10Z</time>
      </trkpt>
      <trkpt lat="46.03991" lon="6.77447">
        <ele>908.1</ele>
        <time>2023-08-11T16:18:18Z</time>
      </trkpt>
      <trkpt lat="46.04008" lon="6.77461">
        <ele>906.6</ele>
        <time>2023-08-11T16:18:26Z</time>
      </trkpt>
      <trkpt lat="46.04024" lon="6.77475">
        <ele>904.8</ele>
        <time>2023-08-11T16:18:34Z</time>
      </trkpt>
      <trkpt lat="46.04044" lon="6.77484">
        <ele>902.9</ele>
        <time>2023-08-11T16:18:42Z</time>
      </trkpt>
      <trkpt lat="46.04061" lon="6.77492">
        <ele>901.6</ele>
        <time>2023-08-11T16:18:50Z</time>
      </trkpt>
      <trkpt lat="46.04079" lon="6.7749">
        <ele>900.5</ele>
        <time>2023-08-11T16:18:58Z</time>
      </trkpt>
      <trkpt lat="46.04095" lon="6.77471">
        <ele>899.3</ele>
        <time>2023-08-11T16:19:06Z</time>
      </trkpt>
      <trkpt lat="46.04108" lon="6.77453">
        <ele>898</ele>
        <time>2023-08-11T16:19:13Z</time>
      </trkpt>
      <trkpt lat="46.04121" lon="6.77434">
        <ele>897.8</ele>
        <time>2023-08-11T16:19:21Z</time>
      </trkpt>
      <trkpt lat="46.04128" lon="6.7741">
        <ele>895.6</ele>
        <time>2023-08-11T16:19:29Z</time>
      </trkpt>
      <trkpt lat="46.04134" lon="6.77383">
        <ele>893.8</ele>
        <time>2023-08-11T16:19:38Z</time>
      </trkpt>
      <trkpt lat="46.04139" lon="6.77356">
        <ele>891.9</ele>
        <time>2023-08-11T16:19:47Z</time>
      </trkpt>
      <trkpt lat="46.0413" lon="6.77346">
        <ele>890.1</ele>
        <time>2023-08-11T16:19:57Z</time>
      </trkpt>
      <trkpt lat="46.04111" lon="6.77348">
        <ele>886.9</ele>
        <time>2023-08-11T16:20:09Z</time>
      </trkpt>
      <trkpt lat="46.04093" lon="6.77351">
        <ele>883.7</ele>
        <time>2023-08-11T16:20:17Z</time>
      </trkpt>
      <trkpt lat="46.04086" lon="6.77353">
        <ele>882.4</ele>
        <time>2023-08-11T16:20:21Z</time>
      </trkpt>
      <trkpt lat="46.0408" lon="6.77355">
        <ele>881.4</ele>
        <time>2023-08-11T16:20:24Z</time>
      </trkpt>
      <trkpt lat="46.04064" lon="6.77342">
        <ele>878.1</ele>
        <time>2023-08-11T16:20:33Z</time>
      </trkpt>
      <trkpt lat="46.04047" lon="6.77328">
        <ele>874.4</ele>
        <time>2023-08-11T16:20:43Z</time>
      </trkpt>
      <trkpt lat="46.04031" lon="6.77316">
        <ele>870.5</ele>
        <time>2023-08-11T16:20:50Z</time>
      </trkpt>
      <trkpt lat="46.04012" lon="6.77306">
        <ele>867.4</ele>
        <time>2023-08-11T16:20:58Z</time>
      </trkpt>
      <trkpt lat="46.03995" lon="6.77293">
        <ele>864.5</ele>
        <time>2023-08-11T16:21:06Z</time>
      </trkpt>
      <trkpt lat="46.03978" lon="6.77284">
        <ele>861.7</ele>
        <time>2023-08-11T16:21:14Z</time>
      </trkpt>
      <trkpt lat="46.03959" lon="6.77278">
        <ele>859.8</ele>
        <time>2023-08-11T16:21:22Z</time>
      </trkpt>
      <trkpt lat="46.03941" lon="6.77286">
        <ele>859.6</ele>
        <time>2023-08-11T16:21:30Z</time>
      </trkpt>
      <trkpt lat="46.03923" lon="6.77291">
        <ele>858.5</ele>
        <time>2023-08-11T16:21:39Z</time>
      </trkpt>
      <trkpt lat="46.03904" lon="6.77298">
        <ele>857.1</ele>
        <time>2023-08-11T16:21:47Z</time>
      </trkpt>
      <trkpt lat="46.03889" lon="6.773">
        <ele>857.3</ele>
        <time>2023-08-11T16:21:53Z</time>
      </trkpt>
      <trkpt lat="46.03881" lon="6.77277">
        <ele>855.4</ele>
        <time>2023-08-11T16:22:00Z</time>
      </trkpt>
      <trkpt lat="46.03881" lon="6.77251">
        <ele>853.7</ele>
        <time>2023-08-11T16:22:07Z</time>
      </trkpt>
      <trkpt lat="46.03866" lon="6.77236">
        <ele>852</ele>
        <time>2023-08-11T16:22:16Z</time>
      </trkpt>
      <trkpt lat="46.03848" lon="6.7724">
        <ele>850.4</ele>
        <time>2023-08-11T16:22:24Z</time>
      </trkpt>
      <trkpt lat="46.0383" lon="6.7724">
        <ele>848.7</ele>
        <time>2023-08-11T16:22:32Z</time>
      </trkpt>
      <trkpt lat="46.03812" lon="6.7723">
        <ele>845.9</ele>
        <time>2023-08-11T16:22:39Z</time>
      </trkpt>
      <trkpt lat="46.03797" lon="6.77213">
        <ele>843.8</ele>
        <time>2023-08-11T16:22:45Z</time>
      </trkpt>
      <trkpt lat="46.03784" lon="6.7719">
        <ele>841.5</ele>
        <time>2023-08-11T16:22:52Z</time>
      </trkpt>
      <trkpt lat="46.03773" lon="6.77169">
        <ele>839.3</ele>
        <time>2023-08-11T16:22:58Z</time>
      </trkpt>
      <trkpt lat="46.03764" lon="6.77143">
        <ele>837.2</ele>
        <time>2023-08-11T16:23:05Z</time>
      </trkpt>
      <trkpt lat="46.03746" lon="6.77136">
        <ele>835.5</ele>
        <time>2023-08-11T16:23:14Z</time>
      </trkpt>
      <trkpt lat="46.03731" lon="6.7713">
        <ele>834.5</ele>
        <time>2023-08-11T16:23:26Z</time>
      </trkpt>
      <trkpt lat="46.03731" lon="6.77128">
        <ele>834.3</ele>
        <time>2023-08-11T16:23:27Z</time>
      </trkpt>
      <trkpt lat="46.03738" lon="6.77109">
        <ele>833.3</ele>
        <time>2023-08-11T16:23:34Z</time>
      </trkpt>
      <trkpt lat="46.03724" lon="6.77094">
        <ele>832.3</ele>
        <time>2023-08-11T16:23:42Z</time>
      </trkpt>
      <trkpt lat="46.03706" lon="6.7709">
        <ele>832.9</ele>
        <time>2023-08-11T16:23:53Z</time>
      </trkpt>
      <trkpt lat="46.03687" lon="6.77081">
        <ele>833.5</ele>
        <time>2023-08-11T16:24:01Z</time>
      </trkpt>
      <trkpt lat="46.03669" lon="6.77083">
        <ele>833.7</ele>
        <time>2023-08-11T16:24:11Z</time>
      </trkpt>
      <trkpt lat="46.03655" lon="6.77103">
        <ele>834.4</ele>
        <time>2023-08-11T16:24:19Z</time>
      </trkpt>
      <trkpt lat="46.03647" lon="6.77129">
        <ele>836</ele>
        <time>2023-08-11T16:24:29Z</time>
      </trkpt>
      <trkpt lat="46.03636" lon="6.77149">
        <ele>837.7</ele>
        <time>2023-08-11T16:24:39Z</time>
      </trkpt>
      <trkpt lat="46.03621" lon="6.77167">
        <ele>839.6</ele>
        <time>2023-08-11T16:24:52Z</time>
      </trkpt>
      <trkpt lat="46.03602" lon="6.77174">
        <ele>841.2</ele>
        <time>2023-08-11T16:25:02Z</time>
      </trkpt>
      <trkpt lat="46.03584" lon="6.77169">
        <ele>843.2</ele>
        <time>2023-08-11T16:25:10Z</time>
      </trkpt>
      <trkpt lat="46.03565" lon="6.77165">
        <ele>845.8</ele>
        <time>2023-08-11T16:25:21Z</time>
      </trkpt>
      <trkpt lat="46.03545" lon="6.77168">
        <ele>846.5</ele>
        <time>2023-08-11T16:25:30Z</time>
      </trkpt>
      <trkpt lat="46.03526" lon="6.77169">
        <ele>845.9</ele>
        <time>2023-08-11T16:25:38Z</time>
      </trkpt>
      <trkpt lat="46.03508" lon="6.77182">
        <ele>844.3</ele>
        <time>2023-08-11T16:25:47Z</time>
      </trkpt>
      <trkpt lat="46.03488" lon="6.77182">
        <ele>844.4</ele>
        <time>2023-08-11T16:25:56Z</time>
      </trkpt>
      <trkpt lat="46.03469" lon="6.77179">
        <ele>846.4</ele>
        <time>2023-08-11T16:26:05Z</time>
      </trkpt>
      <trkpt lat="46.0345" lon="6.77179">
        <ele>846.8</ele>
        <time>2023-08-11T16:26:12Z</time>
      </trkpt>
      <trkpt lat="46.03431" lon="6.7718">
        <ele>846.8</ele>
        <time>2023-08-11T16:26:20Z</time>
      </trkpt>
      <trkpt lat="46.03412" lon="6.77186">
        <ele>846.4</ele>
        <time>2023-08-11T16:26:28Z</time>
      </trkpt>
      <trkpt lat="46.03394" lon="6.77191">
        <ele>847.7</ele>
        <time>2023-08-11T16:26:37Z</time>
      </trkpt>
      <trkpt lat="46.03375" lon="6.77193">
        <ele>849</ele>
        <time>2023-08-11T16:26:48Z</time>
      </trkpt>
      <trkpt lat="46.03357" lon="6.77205">
        <ele>850.2</ele>
        <time>2023-08-11T16:26:56Z</time>
      </trkpt>
      <trkpt lat="46.0334" lon="6.77214">
        <ele>851.4</ele>
        <time>2023-08-11T16:27:04Z</time>
      </trkpt>
      <trkpt lat="46.03323" lon="6.77222">
        <ele>852.6</ele>
        <time>2023-08-11T16:27:10Z</time>
      </trkpt>
      <trkpt lat="46.03302" lon="6.77223">
        <ele>854.1</ele>
        <time>2023-08-11T16:27:16Z</time>
      </trkpt>
      <trkpt lat="46.0329" lon="6.77204">
        <ele>855.1</ele>
        <time>2023-08-11T16:27:23Z</time>
      </trkpt>
      <trkpt lat="46.03289" lon="6.77188">
        <ele>855.4</ele>
        <time>2023-08-11T16:27:27Z</time>
      </trkpt>
      <trkpt lat="46.03303" lon="6.77168">
        <ele>856.2</ele>
        <time>2023-08-11T16:27:34Z</time>
      </trkpt>
      <trkpt lat="46.03317" lon="6.77151">
        <ele>857.1</ele>
        <time>2023-08-11T16:27:41Z</time>
      </trkpt>
      <trkpt lat="46.0333" lon="6.77134">
        <ele>856.5</ele>
        <time>2023-08-11T16:27:49Z</time>
      </trkpt>
      <trkpt lat="46.03337" lon="6.77128">
        <ele>856.1</ele>
        <time>2023-08-11T16:27:52Z</time>
      </trkpt>
      <trkpt lat="46.03339" lon="6.77126">
        <ele>855.9</ele>
        <time>2023-08-11T16:27:53Z</time>
      </trkpt>
      <trkpt lat="46.03357" lon="6.77113">
        <ele>854.7</ele>
        <time>2023-08-11T16:28:00Z</time>
      </trkpt>
      <trkpt lat="46.03372" lon="6.77098">
        <ele>854.6</ele>
        <time>2023-08-11T16:28:06Z</time>
      </trkpt>
      <trkpt lat="46.03384" lon="6.77096">
        <ele>854.8</ele>
        <time>2023-08-11T16:28:11Z</time>
      </trkpt>
      <trkpt lat="46.03385" lon="6.77098">
        <ele>854.8</ele>
        <time>2023-08-11T16:28:12Z</time>
      </trkpt>
    </trkseg>
  </trk>
</gpx>